Aviation Digital Data Service (ADDS)

Output produced by METARs form (2205 UTC 22 September 2020)
found at http://www.aviationweather.gov/metar/data/
 
Forecast for: RJOM (MATSUYAMA AIRPOR, JP)
Text: TAF RJOM 221706Z 2218/2400 12006KT 9999 FEW030 BKN060
Forecast period: 1800 to 2100 UTC 22 September 2020
Forecast type: FROM: standard forecast or significant change
Winds: from the ESE (120 degrees) at 7 MPH (6 knots; 3.1 m/s)
Visibility: 6 or more miles (10+ km)
Ceiling: 6000 feet AGL
Clouds: few clouds at 3000 feet AGL
broken clouds at 6000 feet AGL
Weather: no significant weather forecast for this period
Text: BECMG 2221/2223 01012KT
Forecast period: 2100 UTC 22 September 2020 to 0000 UTC 24 September 2020
Forecast type: BECOMING: Conditions expected to become as follows by 2300 UTC 22 September 2020
Winds: from the N (10 degrees) at 14 MPH (12 knots; 6.2 m/s)
Visibility: 6 or more miles (10+ km)
Ceiling: 6000 feet AGL
Clouds: few clouds at 3000 feet AGL
broken clouds at 6000 feet AGL
Weather: no significant weather forecast for this period